sensor_id;sensor_type;location;lat;lon;timestamp;P1;durP1;ratioP1;P2;durP2;ratioP2
75634;SDS011;64227;48.724;9.104;2023-08-24T00:01:03;3.08;;;2.78;;
75634;SDS011;64227;48.724;9.104;2023-08-24T00:03:28;3.22;;;2.92;;
75634;SDS011;64227;48.724;9.104;2023-08-24T00:05:54;3.63;;;3.15;;
75634;SDS011;64227;48.724;9.104;2023-08-24T00:08:19;3.30;;;2.97;;
75634;SDS011;64227;48.724;9.104;2023-08-24T00:10:45;5.07;;;2.95;;
75634;SDS011;64227;48.724;9.104;2023-08-24T00:13:13;5.72;;;3.15;;
75634;SDS011;64227;48.724;9.104;2023-08-24T00:15:39;3.53;;;3.20;;
75634;SDS011;64227;48.724;9.104;2023-08-24T00:18:04;3.33;;;3.03;;
75634;SDS011;64227;48.724;9.104;2023-08-24T00:20:30;3.50;;;3.10;;
75634;SDS011;64227;48.724;9.104;2023-08-24T00:22:57;3.50;;;2.92;;
75634;SDS011;64227;48.724;9.104;2023-08-24T00:25:23;3.60;;;3.17;;
75634;SDS011;64227;48.724;9.104;2023-08-24T00:27:48;4.72;;;3.25;;
75634;SDS011;64227;48.724;9.104;2023-08-24T00:30:14;3.72;;;2.95;;
75634;SDS011;64227;48.724;9.104;2023-08-24T00:32:39;4.30;;;3.10;;
75634;SDS011;64227;48.724;9.104;2023-08-24T00:35:05;3.53;;;3.22;;
75634;SDS011;64227;48.724;9.104;2023-08-24T00:37:31;4.28;;;3.30;;
75634;SDS011;64227;48.724;9.104;2023-08-24T00:39:59;6.55;;;3.60;;
75634;SDS011;64227;48.724;9.104;2023-08-24T00:42:25;5.65;;;3.38;;
75634;SDS011;64227;48.724;9.104;2023-08-24T00:44:51;3.70;;;3.40;;
75634;SDS011;64227;48.724;9.104;2023-08-24T00:47:16;5.25;;;3.58;;
75634;SDS011;64227;48.724;9.104;2023-08-24T00:49:42;3.60;;;3.30;;
75634;SDS011;64227;48.724;9.104;2023-08-24T00:52:07;5.95;;;3.30;;
75634;SDS011;64227;48.724;9.104;2023-08-24T00:54:33;3.65;;;3.28;;
75634;SDS011;64227;48.724;9.104;2023-08-24T00:56:58;3.85;;;3.45;;
75634;SDS011;64227;48.724;9.104;2023-08-24T00:59:24;3.72;;;3.30;;
75634;SDS011;64227;48.724;9.104;2023-08-24T01:01:49;4.18;;;3.67;;
75634;SDS011;64227;48.724;9.104;2023-08-24T01:04:15;3.65;;;3.30;;
75634;SDS011;64227;48.724;9.104;2023-08-24T01:06:41;3.58;;;3.28;;
75634;SDS011;64227;48.724;9.104;2023-08-24T01:09:06;5.75;;;3.45;;
75634;SDS011;64227;48.724;9.104;2023-08-24T01:11:55;5.57;;;3.33;;
75634;SDS011;64227;48.724;9.104;2023-08-24T01:14:30;4.45;;;3.67;;
75634;SDS011;64227;48.724;9.104;2023-08-24T01:17:04;3.55;;;3.25;;
75634;SDS011;64227;48.724;9.104;2023-08-24T01:22:01;4.30;;;3.33;;
75634;SDS011;64227;48.724;9.104;2023-08-24T01:24:30;4.38;;;3.65;;
75634;SDS011;64227;48.724;9.104;2023-08-24T01:29:27;3.73;;;3.43;;
75634;SDS011;64227;48.724;9.104;2023-08-24T01:31:52;4.70;;;3.70;;
75634;SDS011;64227;48.724;9.104;2023-08-24T01:34:17;5.15;;;3.78;;
75634;SDS011;64227;48.724;9.104;2023-08-24T01:36:43;4.30;;;3.30;;
75634;SDS011;64227;48.724;9.104;2023-08-24T01:39:14;4.30;;;3.85;;
75634;SDS011;64227;48.724;9.104;2023-08-24T01:41:46;5.18;;;3.53;;
75634;SDS011;64227;48.724;9.104;2023-08-24T01:44:15;3.67;;;3.38;;
75634;SDS011;64227;48.724;9.104;2023-08-24T01:46:43;3.80;;;3.40;;
75634;SDS011;64227;48.724;9.104;2023-08-24T01:49:11;3.85;;;3.55;;
75634;SDS011;64227;48.724;9.104;2023-08-24T01:51:37;4.10;;;3.42;;
75634;SDS011;64227;48.724;9.104;2023-08-24T01:54:03;3.97;;;3.58;;
75634;SDS011;64227;48.724;9.104;2023-08-24T01:56:28;4.72;;;3.95;;
75634;SDS011;64227;48.724;9.104;2023-08-24T01:58:54;6.40;;;3.78;;
75634;SDS011;64227;48.724;9.104;2023-08-24T02:01:19;4.28;;;3.65;;
75634;SDS011;64227;48.724;9.104;2023-08-24T02:03:44;3.70;;;3.40;;
75634;SDS011;64227;48.724;9.104;2023-08-24T02:06:10;4.10;;;3.58;;
75634;SDS011;64227;48.724;9.104;2023-08-24T02:08:35;5.15;;;4.18;;
75634;SDS011;64227;48.724;9.104;2023-08-24T02:11:00;4.40;;;4.00;;
75634;SDS011;64227;48.724;9.104;2023-08-24T02:13:25;5.32;;;4.25;;
75634;SDS011;64227;48.724;9.104;2023-08-24T02:16:00;3.65;;;3.35;;
75634;SDS011;64227;48.724;9.104;2023-08-24T02:18:28;5.13;;;4.00;;
75634;SDS011;64227;48.724;9.104;2023-08-24T02:20:54;5.10;;;3.92;;
75634;SDS011;64227;48.724;9.104;2023-08-24T02:23:19;4.70;;;3.72;;
75634;SDS011;64227;48.724;9.104;2023-08-24T02:25:44;4.25;;;3.80;;
75634;SDS011;64227;48.724;9.104;2023-08-24T02:28:10;4.70;;;3.50;;
75634;SDS011;64227;48.724;9.104;2023-08-24T02:30:38;4.13;;;3.70;;
75634;SDS011;64227;48.724;9.104;2023-08-24T02:33:04;4.57;;;3.80;;
75634;SDS011;64227;48.724;9.104;2023-08-24T02:35:29;5.28;;;4.18;;
75634;SDS011;64227;48.724;9.104;2023-08-24T02:37:54;4.68;;;4.03;;
75634;SDS011;64227;48.724;9.104;2023-08-24T02:40:21;4.95;;;3.78;;
75634;SDS011;64227;48.724;9.104;2023-08-24T02:42:47;4.63;;;4.07;;
75634;SDS011;64227;48.724;9.104;2023-08-24T02:45:12;4.70;;;3.92;;
75634;SDS011;64227;48.724;9.104;2023-08-24T02:47:38;4.47;;;3.67;;
75634;SDS011;64227;48.724;9.104;2023-08-24T02:50:04;3.80;;;3.47;;
75634;SDS011;64227;48.724;9.104;2023-08-24T02:52:31;4.05;;;3.53;;
75634;SDS011;64227;48.724;9.104;2023-08-24T02:54:56;5.65;;;3.63;;
75634;SDS011;64227;48.724;9.104;2023-08-24T02:57:21;4.50;;;3.53;;
75634;SDS011;64227;48.724;9.104;2023-08-24T02:59:47;4.53;;;3.80;;
75634;SDS011;64227;48.724;9.104;2023-08-24T03:02:12;4.75;;;3.60;;
75634;SDS011;64227;48.724;9.104;2023-08-24T03:04:38;4.45;;;4.05;;
75634;SDS011;64227;48.724;9.104;2023-08-24T03:07:03;5.28;;;4.10;;
75634;SDS011;64227;48.724;9.104;2023-08-24T03:09:28;4.53;;;3.72;;
75634;SDS011;64227;48.724;9.104;2023-08-24T03:11:54;4.03;;;3.40;;
75634;SDS011;64227;48.724;9.104;2023-08-24T03:14:19;4.13;;;3.58;;
75634;SDS011;64227;48.724;9.104;2023-08-24T03:16:45;3.83;;;3.47;;
75634;SDS011;64227;48.724;9.104;2023-08-24T03:19:10;5.45;;;4.18;;
75634;SDS011;64227;48.724;9.104;2023-08-24T03:21:37;5.70;;;4.15;;
75634;SDS011;64227;48.724;9.104;2023-08-24T03:24:02;4.32;;;3.92;;
75634;SDS011;64227;48.724;9.104;2023-08-24T03:26:29;4.18;;;3.78;;
75634;SDS011;64227;48.724;9.104;2023-08-24T03:28:55;4.43;;;4.03;;
75634;SDS011;64227;48.724;9.104;2023-08-24T03:31:20;4.30;;;4.00;;
75634;SDS011;64227;48.724;9.104;2023-08-24T03:33:45;5.95;;;3.53;;
75634;SDS011;64227;48.724;9.104;2023-08-24T03:36:11;4.55;;;4.15;;
75634;SDS011;64227;48.724;9.104;2023-08-24T03:38:37;3.90;;;3.50;;
75634;SDS011;64227;48.724;9.104;2023-08-24T03:41:03;4.20;;;3.78;;
75634;SDS011;64227;48.724;9.104;2023-08-24T03:43:31;4.10;;;3.80;;
75634;SDS011;64227;48.724;9.104;2023-08-24T03:45:57;6.30;;;3.70;;
75634;SDS011;64227;48.724;9.104;2023-08-24T03:48:23;4.40;;;3.80;;
75634;SDS011;64227;48.724;9.104;2023-08-24T03:50:48;5.75;;;3.92;;
75634;SDS011;64227;48.724;9.104;2023-08-24T03:53:13;4.00;;;3.70;;
75634;SDS011;64227;48.724;9.104;2023-08-24T03:55:38;5.47;;;4.07;;
75634;SDS011;64227;48.724;9.104;2023-08-24T03:58:04;4.65;;;3.80;;
75634;SDS011;64227;48.724;9.104;2023-08-24T04:00:29;5.53;;;4.00;;
75634;SDS011;64227;48.724;9.104;2023-08-24T04:02:55;3.92;;;3.63;;
75634;SDS011;64227;48.724;9.104;2023-08-24T04:05:21;3.80;;;3.50;;
75634;SDS011;64227;48.724;9.104;2023-08-24T04:07:46;4.93;;;4.53;;
75634;SDS011;64227;48.724;9.104;2023-08-24T04:10:12;6.32;;;3.83;;
75634;SDS011;64227;48.724;9.104;2023-08-24T04:12:37;4.90;;;4.47;;
75634;SDS011;64227;48.724;9.104;2023-08-24T04:15:03;4.50;;;4.10;;
75634;SDS011;64227;48.724;9.104;2023-08-24T04:17:29;6.53;;;4.15;;
75634;SDS011;64227;48.724;9.104;2023-08-24T04:19:55;4.20;;;3.80;;
75634;SDS011;64227;48.724;9.104;2023-08-24T04:22:20;4.40;;;3.90;;
75634;SDS011;64227;48.724;9.104;2023-08-24T04:24:45;5.07;;;3.92;;
75634;SDS011;64227;48.724;9.104;2023-08-24T04:27:11;3.78;;;3.47;;
75634;SDS011;64227;48.724;9.104;2023-08-24T04:29:36;4.70;;;4.20;;
75634;SDS011;64227;48.724;9.104;2023-08-24T04:32:02;4.30;;;3.90;;
75634;SDS011;64227;48.724;9.104;2023-08-24T04:34:27;5.13;;;4.60;;
75634;SDS011;64227;48.724;9.104;2023-08-24T04:36:53;4.22;;;3.83;;
75634;SDS011;64227;48.724;9.104;2023-08-24T04:39:19;4.60;;;3.85;;
75634;SDS011;64227;48.724;9.104;2023-08-24T04:41:44;4.95;;;3.90;;
75634;SDS011;64227;48.724;9.104;2023-08-24T04:44:10;4.00;;;3.53;;
75634;SDS011;64227;48.724;9.104;2023-08-24T04:46:35;4.25;;;3.65;;
75634;SDS011;64227;48.724;9.104;2023-08-24T04:49:00;5.75;;;4.28;;
75634;SDS011;64227;48.724;9.104;2023-08-24T04:51:26;4.55;;;3.75;;
75634;SDS011;64227;48.724;9.104;2023-08-24T04:53:52;3.85;;;3.28;;
75634;SDS011;64227;48.724;9.104;2023-08-24T04:56:18;5.70;;;5.20;;
75634;SDS011;64227;48.724;9.104;2023-08-24T04:58:56;4.95;;;4.28;;
75634;SDS011;64227;48.724;9.104;2023-08-24T05:01:23;5.20;;;4.10;;
75634;SDS011;64227;48.724;9.104;2023-08-24T05:03:50;5.28;;;4.20;;
75634;SDS011;64227;48.724;9.104;2023-08-24T05:06:16;4.68;;;4.00;;
75634;SDS011;64227;48.724;9.104;2023-08-24T05:08:41;4.65;;;3.63;;
75634;SDS011;64227;48.724;9.104;2023-08-24T05:11:13;4.20;;;3.80;;
75634;SDS011;64227;48.724;9.104;2023-08-24T05:13:40;5.43;;;3.88;;
75634;SDS011;64227;48.724;9.104;2023-08-24T05:16:05;4.40;;;3.85;;
75634;SDS011;64227;48.724;9.104;2023-08-24T05:18:31;4.10;;;3.60;;
75634;SDS011;64227;48.724;9.104;2023-08-24T05:20:56;3.97;;;3.58;;
75634;SDS011;64227;48.724;9.104;2023-08-24T05:23:21;7.07;;;4.70;;
75634;SDS011;64227;48.724;9.104;2023-08-24T05:25:46;6.65;;;4.82;;
75634;SDS011;64227;48.724;9.104;2023-08-24T05:28:12;4.53;;;3.73;;
75634;SDS011;64227;48.724;9.104;2023-08-24T05:30:37;4.85;;;4.35;;
75634;SDS011;64227;48.724;9.104;2023-08-24T05:33:03;4.80;;;4.30;;
75634;SDS011;64227;48.724;9.104;2023-08-24T05:35:28;5.55;;;4.60;;
75634;SDS011;64227;48.724;9.104;2023-08-24T05:37:54;4.72;;;4.22;;
75634;SDS011;64227;48.724;9.104;2023-08-24T05:40:19;5.18;;;4.68;;
75634;SDS011;64227;48.724;9.104;2023-08-24T05:42:44;4.30;;;3.88;;
75634;SDS011;64227;48.724;9.104;2023-08-24T05:45:10;4.13;;;3.65;;
75634;SDS011;64227;48.724;9.104;2023-08-24T05:47:37;5.55;;;4.47;;
75634;SDS011;64227;48.724;9.104;2023-08-24T05:50:02;3.75;;;3.42;;
75634;SDS011;64227;48.724;9.104;2023-08-24T05:52:27;5.65;;;4.13;;
75634;SDS011;64227;48.724;9.104;2023-08-24T05:54:53;9.32;;;4.53;;
75634;SDS011;64227;48.724;9.104;2023-08-24T05:57:18;4.20;;;3.80;;
75634;SDS011;64227;48.724;9.104;2023-08-24T05:59:43;4.45;;;3.97;;
75634;SDS011;64227;48.724;9.104;2023-08-24T06:02:09;4.97;;;3.97;;
75634;SDS011;64227;48.724;9.104;2023-08-24T06:04:34;6.80;;;3.97;;
75634;SDS011;64227;48.724;9.104;2023-08-24T06:06:59;6.15;;;3.92;;
75634;SDS011;64227;48.724;9.104;2023-08-24T06:09:25;4.65;;;4.07;;
75634;SDS011;64227;48.724;9.104;2023-08-24T06:11:51;4.60;;;4.20;;
75634;SDS011;64227;48.724;9.104;2023-08-24T06:14:16;5.07;;;4.35;;
75634;SDS011;64227;48.724;9.104;2023-08-24T06:16:41;4.10;;;3.72;;
75634;SDS011;64227;48.724;9.104;2023-08-24T06:19:06;4.20;;;3.42;;
75634;SDS011;64227;48.724;9.104;2023-08-24T06:21:32;4.25;;;3.85;;
75634;SDS011;64227;48.724;9.104;2023-08-24T06:23:57;4.07;;;3.78;;
75634;SDS011;64227;48.724;9.104;2023-08-24T06:26:22;3.88;;;3.47;;
75634;SDS011;64227;48.724;9.104;2023-08-24T06:28:48;3.95;;;3.25;;
75634;SDS011;64227;48.724;9.104;2023-08-24T06:31:13;4.13;;;3.45;;
75634;SDS011;64227;48.724;9.104;2023-08-24T06:33:39;4.40;;;3.20;;
75634;SDS011;64227;48.724;9.104;2023-08-24T06:36:05;4.00;;;3.60;;
75634;SDS011;64227;48.724;9.104;2023-08-24T06:38:30;6.30;;;3.70;;
75634;SDS011;64227;48.724;9.104;2023-08-24T06:40:59;4.18;;;3.78;;
75634;SDS011;64227;48.724;9.104;2023-08-24T06:43:25;4.90;;;3.42;;
75634;SDS011;64227;48.724;9.104;2023-08-24T06:45:50;4.93;;;3.60;;
75634;SDS011;64227;48.724;9.104;2023-08-24T06:48:16;3.80;;;3.30;;
75634;SDS011;64227;48.724;9.104;2023-08-24T06:50:42;3.58;;;3.03;;
75634;SDS011;64227;48.724;9.104;2023-08-24T06:53:08;3.95;;;3.65;;
75634;SDS011;64227;48.724;9.104;2023-08-24T06:55:33;4.72;;;3.83;;
75634;SDS011;64227;48.724;9.104;2023-08-24T06:57:58;6.93;;;3.60;;
75634;SDS011;64227;48.724;9.104;2023-08-24T07:00:24;5.90;;;3.63;;
75634;SDS011;64227;48.724;9.104;2023-08-24T07:02:50;4.82;;;3.65;;
75634;SDS011;64227;48.724;9.104;2023-08-24T07:05:15;4.93;;;3.50;;
75634;SDS011;64227;48.724;9.104;2023-08-24T07:07:44;4.60;;;3.30;;
75634;SDS011;64227;48.724;9.104;2023-08-24T07:10:10;4.18;;;3.22;;
75634;SDS011;64227;48.724;9.104;2023-08-24T07:12:36;2.90;;;2.70;;
75634;SDS011;64227;48.724;9.104;2023-08-24T07:15:01;3.55;;;2.75;;
75634;SDS011;64227;48.724;9.104;2023-08-24T07:17:27;3.25;;;2.40;;
75634;SDS011;64227;48.724;9.104;2023-08-24T07:19:52;3.10;;;2.65;;
75634;SDS011;64227;48.724;9.104;2023-08-24T07:22:18;4.45;;;2.70;;
75634;SDS011;64227;48.724;9.104;2023-08-24T07:24:44;3.15;;;2.85;;
75634;SDS011;64227;48.724;9.104;2023-08-24T07:27:09;3.13;;;2.83;;
75634;SDS011;64227;48.724;9.104;2023-08-24T07:29:35;2.83;;;2.50;;
75634;SDS011;64227;48.724;9.104;2023-08-24T07:32:00;5.13;;;3.45;;
75634;SDS011;64227;48.724;9.104;2023-08-24T07:34:25;4.53;;;3.40;;
75634;SDS011;64227;48.724;9.104;2023-08-24T07:36:51;4.32;;;3.53;;
75634;SDS011;64227;48.724;9.104;2023-08-24T07:39:16;3.80;;;3.03;;
75634;SDS011;64227;48.724;9.104;2023-08-24T07:41:41;3.38;;;3.08;;
75634;SDS011;64227;48.724;9.104;2023-08-24T07:44:07;3.40;;;3.10;;
75634;SDS011;64227;48.724;9.104;2023-08-24T07:46:33;4.68;;;2.88;;
75634;SDS011;64227;48.724;9.104;2023-08-24T07:48:58;3.60;;;2.50;;
75634;SDS011;64227;48.724;9.104;2023-08-24T07:51:23;5.72;;;3.05;;
75634;SDS011;64227;48.724;9.104;2023-08-24T07:53:49;4.80;;;2.97;;
75634;SDS011;64227;48.724;9.104;2023-08-24T07:56:16;2.92;;;2.38;;
75634;SDS011;64227;48.724;9.104;2023-08-24T07:58:42;4.05;;;2.95;;
75634;SDS011;64227;48.724;9.104;2023-08-24T08:01:07;4.55;;;2.70;;
75634;SDS011;64227;48.724;9.104;2023-08-24T08:03:32;8.23;;;2.80;;
75634;SDS011;64227;48.724;9.104;2023-08-24T08:06:00;5.43;;;2.72;;
75634;SDS011;64227;48.724;9.104;2023-08-24T08:08:26;3.70;;;2.28;;
75634;SDS011;64227;48.724;9.104;2023-08-24T08:11:01;5.63;;;2.88;;
75634;SDS011;64227;48.724;9.104;2023-08-24T08:13:27;3.13;;;2.78;;
75634;SDS011;64227;48.724;9.104;2023-08-24T08:15:53;6.63;;;2.55;;
75634;SDS011;64227;48.724;9.104;2023-08-24T08:18:19;9.60;;;2.95;;
75634;SDS011;64227;48.724;9.104;2023-08-24T08:20:44;6.05;;;2.83;;
75634;SDS011;64227;48.724;9.104;2023-08-24T08:23:10;3.25;;;2.58;;
75634;SDS011;64227;48.724;9.104;2023-08-24T08:25:35;4.40;;;2.72;;
75634;SDS011;64227;48.724;9.104;2023-08-24T08:28:00;5.55;;;2.60;;
75634;SDS011;64227;48.724;9.104;2023-08-24T08:30:25;7.28;;;3.03;;
75634;SDS011;64227;48.724;9.104;2023-08-24T08:32:51;5.18;;;2.67;;
75634;SDS011;64227;48.724;9.104;2023-08-24T08:35:17;5.70;;;3.00;;
75634;SDS011;64227;48.724;9.104;2023-08-24T08:37:43;5.57;;;2.92;;
75634;SDS011;64227;48.724;9.104;2023-08-24T08:40:09;4.60;;;2.55;;
75634;SDS011;64227;48.724;9.104;2023-08-24T08:42:35;6.40;;;3.10;;
75634;SDS011;64227;48.724;9.104;2023-08-24T08:45:00;3.75;;;2.58;;
75634;SDS011;64227;48.724;9.104;2023-08-24T08:47:28;5.55;;;3.05;;
75634;SDS011;64227;48.724;9.104;2023-08-24T08:49:53;5.88;;;3.20;;
75634;SDS011;64227;48.724;9.104;2023-08-24T08:52:20;3.00;;;2.70;;
75634;SDS011;64227;48.724;9.104;2023-08-24T08:54:45;4.60;;;3.08;;
75634;SDS011;64227;48.724;9.104;2023-08-24T08:57:11;4.53;;;2.67;;
75634;SDS011;64227;48.724;9.104;2023-08-24T08:59:36;5.22;;;3.05;;
75634;SDS011;64227;48.724;9.104;2023-08-24T09:02:02;4.10;;;2.72;;
75634;SDS011;64227;48.724;9.104;2023-08-24T09:04:31;7.85;;;3.72;;
75634;SDS011;64227;48.724;9.104;2023-08-24T09:06:57;4.43;;;2.50;;
75634;SDS011;64227;48.724;9.104;2023-08-24T09:09:23;3.88;;;2.75;;
75634;SDS011;64227;48.724;9.104;2023-08-24T09:11:50;5.75;;;3.05;;
75634;SDS011;64227;48.724;9.104;2023-08-24T09:14:15;3.55;;;2.72;;
75634;SDS011;64227;48.724;9.104;2023-08-24T09:16:41;6.55;;;3.42;;
75634;SDS011;64227;48.724;9.104;2023-08-24T09:19:10;4.40;;;3.25;;
75634;SDS011;64227;48.724;9.104;2023-08-24T09:21:39;3.45;;;2.90;;
75634;SDS011;64227;48.724;9.104;2023-08-24T09:24:06;6.32;;;3.25;;
75634;SDS011;64227;48.724;9.104;2023-08-24T09:26:35;3.22;;;2.92;;
75634;SDS011;64227;48.724;9.104;2023-08-24T09:29:11;4.68;;;3.00;;
75634;SDS011;64227;48.724;9.104;2023-08-24T09:31:38;5.53;;;2.80;;
75634;SDS011;64227;48.724;9.104;2023-08-24T09:34:03;5.47;;;3.22;;
75634;SDS011;64227;48.724;9.104;2023-08-24T09:36:35;4.80;;;3.08;;
75634;SDS011;64227;48.724;9.104;2023-08-24T09:39:02;4.65;;;3.22;;
75634;SDS011;64227;48.724;9.104;2023-08-24T09:41:41;4.57;;;2.70;;
75634;SDS011;64227;48.724;9.104;2023-08-24T09:44:10;3.88;;;2.55;;
75634;SDS011;64227;48.724;9.104;2023-08-24T09:46:39;6.57;;;3.08;;
75634;SDS011;64227;48.724;9.104;2023-08-24T09:49:06;4.75;;;2.83;;
75634;SDS011;64227;48.724;9.104;2023-08-24T09:51:35;4.38;;;2.97;;
75634;SDS011;64227;48.724;9.104;2023-08-24T09:54:03;5.00;;;2.70;;
75634;SDS011;64227;48.724;9.104;2023-08-24T09:56:36;4.13;;;2.95;;
75634;SDS011;64227;48.724;9.104;2023-08-24T09:59:12;3.60;;;2.75;;
75634;SDS011;64227;48.724;9.104;2023-08-24T10:01:46;7.75;;;3.22;;
75634;SDS011;64227;48.724;9.104;2023-08-24T10:04:23;4.47;;;2.70;;
75634;SDS011;64227;48.724;9.104;2023-08-24T10:06:55;6.55;;;3.35;;
75634;SDS011;64227;48.724;9.104;2023-08-24T10:09:22;2.95;;;2.28;;
75634;SDS011;64227;48.724;9.104;2023-08-24T10:12:15;4.75;;;2.78;;
75634;SDS011;64227;48.724;9.104;2023-08-24T10:14:47;5.82;;;2.90;;
75634;SDS011;64227;48.724;9.104;2023-08-24T10:17:32;4.18;;;2.58;;
75634;SDS011;64227;48.724;9.104;2023-08-24T10:19:59;2.85;;;2.65;;
75634;SDS011;64227;48.724;9.104;2023-08-24T10:22:30;4.47;;;2.53;;
75634;SDS011;64227;48.724;9.104;2023-08-24T10:24:56;4.18;;;2.80;;
75634;SDS011;64227;48.724;9.104;2023-08-24T10:27:26;6.13;;;3.17;;
75634;SDS011;64227;48.724;9.104;2023-08-24T10:29:52;3.05;;;2.50;;
75634;SDS011;64227;48.724;9.104;2023-08-24T10:32:18;3.55;;;2.80;;
75634;SDS011;64227;48.724;9.104;2023-08-24T10:34:44;3.83;;;2.60;;
75634;SDS011;64227;48.724;9.104;2023-08-24T10:37:10;3.22;;;2.92;;
75634;SDS011;64227;48.724;9.104;2023-08-24T10:39:37;4.53;;;3.03;;
75634;SDS011;64227;48.724;9.104;2023-08-24T10:42:03;6.75;;;3.20;;
75634;SDS011;64227;48.724;9.104;2023-08-24T10:44:35;5.22;;;3.42;;
75634;SDS011;64227;48.724;9.104;2023-08-24T10:49:41;6.45;;;3.28;;
75634;SDS011;64227;48.724;9.104;2023-08-24T10:52:17;5.43;;;3.25;;
75634;SDS011;64227;48.724;9.104;2023-08-24T10:54:43;3.92;;;3.50;;
75634;SDS011;64227;48.724;9.104;2023-08-24T10:59:44;5.00;;;3.33;;
75634;SDS011;64227;48.724;9.104;2023-08-24T11:02:17;4.40;;;2.67;;
75634;SDS011;64227;48.724;9.104;2023-08-24T11:07:31;4.15;;;3.13;;
75634;SDS011;64227;48.724;9.104;2023-08-24T11:09:56;5.85;;;3.55;;
75634;SDS011;64227;48.724;9.104;2023-08-24T11:12:22;5.05;;;3.05;;
75634;SDS011;64227;48.724;9.104;2023-08-24T11:14:51;4.93;;;3.50;;
75634;SDS011;64227;48.724;9.104;2023-08-24T11:17:19;4.85;;;3.35;;
75634;SDS011;64227;48.724;9.104;2023-08-24T11:19:49;6.93;;;3.50;;
75634;SDS011;64227;48.724;9.104;2023-08-24T11:22:16;5.32;;;3.28;;
75634;SDS011;64227;48.724;9.104;2023-08-24T11:24:42;6.93;;;3.40;;
75634;SDS011;64227;48.724;9.104;2023-08-24T11:27:08;8.18;;;3.50;;
75634;SDS011;64227;48.724;9.104;2023-08-24T11:29:34;7.00;;;3.65;;
75634;SDS011;64227;48.724;9.104;2023-08-24T11:31:59;5.00;;;3.10;;
75634;SDS011;64227;48.724;9.104;2023-08-24T11:34:24;5.05;;;3.22;;
75634;SDS011;64227;48.724;9.104;2023-08-24T11:36:49;5.43;;;3.17;;
75634;SDS011;64227;48.724;9.104;2023-08-24T11:39:19;3.58;;;3.05;;
75634;SDS011;64227;48.724;9.104;2023-08-24T11:41:56;7.45;;;3.47;;
75634;SDS011;64227;48.724;9.104;2023-08-24T11:46:49;6.20;;;3.00;;
75634;SDS011;64227;48.724;9.104;2023-08-24T11:49:15;6.20;;;3.75;;
75634;SDS011;64227;48.724;9.104;2023-08-24T11:51:40;10.57;;;4.45;;
75634;SDS011;64227;48.724;9.104;2023-08-24T11:54:06;5.50;;;3.33;;
75634;SDS011;64227;48.724;9.104;2023-08-24T11:56:31;7.43;;;3.45;;
75634;SDS011;64227;48.724;9.104;2023-08-24T11:58:56;8.45;;;3.40;;
75634;SDS011;64227;48.724;9.104;2023-08-24T12:01:22;5.38;;;3.55;;
75634;SDS011;64227;48.724;9.104;2023-08-24T12:03:47;3.97;;;2.83;;
75634;SDS011;64227;48.724;9.104;2023-08-24T12:06:14;7.18;;;3.33;;
75634;SDS011;64227;48.724;9.104;2023-08-24T12:08:47;4.47;;;3.40;;
75634;SDS011;64227;48.724;9.104;2023-08-24T12:11:16;6.13;;;3.35;;
75634;SDS011;64227;48.724;9.104;2023-08-24T12:13:43;6.10;;;3.25;;
75634;SDS011;64227;48.724;9.104;2023-08-24T12:16:14;7.80;;;3.85;;
75634;SDS011;64227;48.724;9.104;2023-08-24T12:19:14;8.63;;;3.50;;
75634;SDS011;64227;48.724;9.104;2023-08-24T12:21:32;4.70;;;3.88;;
75634;SDS011;64227;48.724;9.104;2023-08-24T12:23:58;5.38;;;3.42;;
75634;SDS011;64227;48.724;9.104;2023-08-24T12:26:25;5.95;;;3.30;;
75634;SDS011;64227;48.724;9.104;2023-08-24T12:28:51;4.28;;;3.65;;
75634;SDS011;64227;48.724;9.104;2023-08-24T12:31:17;7.35;;;3.67;;
75634;SDS011;64227;48.724;9.104;2023-08-24T12:33:43;8.45;;;4.45;;
75634;SDS011;64227;48.724;9.104;2023-08-24T12:36:09;6.18;;;3.70;;
75634;SDS011;64227;48.724;9.104;2023-08-24T12:38:34;5.07;;;4.03;;
75634;SDS011;64227;48.724;9.104;2023-08-24T12:41:00;5.63;;;3.22;;
75634;SDS011;64227;48.724;9.104;2023-08-24T12:43:26;3.70;;;3.20;;
75634;SDS011;64227;48.724;9.104;2023-08-24T12:45:51;4.75;;;3.33;;
75634;SDS011;64227;48.724;9.104;2023-08-24T12:48:16;5.35;;;4.13;;
75634;SDS011;64227;48.724;9.104;2023-08-24T12:50:42;6.55;;;3.63;;
75634;SDS011;64227;48.724;9.104;2023-08-24T12:53:07;4.82;;;3.22;;
75634;SDS011;64227;48.724;9.104;2023-08-24T12:55:33;7.13;;;3.63;;
75634;SDS011;64227;48.724;9.104;2023-08-24T12:57:59;4.95;;;3.40;;
75634;SDS011;64227;48.724;9.104;2023-08-24T13:00:24;7.47;;;3.22;;
75634;SDS011;64227;48.724;9.104;2023-08-24T13:02:49;6.07;;;3.70;;
75634;SDS011;64227;48.724;9.104;2023-08-24T13:05:15;5.05;;;3.58;;
75634;SDS011;64227;48.724;9.104;2023-08-24T13:07:40;7.95;;;3.17;;
75634;SDS011;64227;48.724;9.104;2023-08-24T13:10:06;5.30;;;3.30;;
75634;SDS011;64227;48.724;9.104;2023-08-24T13:12:31;10.20;;;3.67;;
75634;SDS011;64227;48.724;9.104;2023-08-24T13:14:57;7.13;;;3.58;;
75634;SDS011;64227;48.724;9.104;2023-08-24T13:17:25;7.38;;;3.50;;
75634;SDS011;64227;48.724;9.104;2023-08-24T13:19:50;6.05;;;3.75;;
75634;SDS011;64227;48.724;9.104;2023-08-24T13:22:15;6.25;;;3.15;;
75634;SDS011;64227;48.724;9.104;2023-08-24T13:24:41;8.13;;;3.67;;
75634;SDS011;64227;48.724;9.104;2023-08-24T13:27:08;8.57;;;3.65;;
75634;SDS011;64227;48.724;9.104;2023-08-24T13:29:35;8.85;;;3.40;;
75634;SDS011;64227;48.724;9.104;2023-08-24T13:32:01;8.65;;;3.72;;
75634;SDS011;64227;48.724;9.104;2023-08-24T13:34:27;7.13;;;3.33;;
75634;SDS011;64227;48.724;9.104;2023-08-24T13:36:52;8.95;;;3.78;;
75634;SDS011;64227;48.724;9.104;2023-08-24T13:39:17;8.13;;;2.97;;
75634;SDS011;64227;48.724;9.104;2023-08-24T13:41:43;5.10;;;3.05;;
75634;SDS011;64227;48.724;9.104;2023-08-24T13:44:08;6.28;;;3.05;;
75634;SDS011;64227;48.724;9.104;2023-08-24T13:46:34;7.85;;;3.20;;
75634;SDS011;64227;48.724;9.104;2023-08-24T13:48:59;7.60;;;3.60;;
75634;SDS011;64227;48.724;9.104;2023-08-24T13:51:24;9.90;;;3.90;;
75634;SDS011;64227;48.724;9.104;2023-08-24T13:53:50;7.95;;;3.88;;
75634;SDS011;64227;48.724;9.104;2023-08-24T13:56:15;10.38;;;3.50;;
75634;SDS011;64227;48.724;9.104;2023-08-24T13:58:40;6.43;;;3.35;;
75634;SDS011;64227;48.724;9.104;2023-08-24T14:01:06;7.25;;;3.00;;
75634;SDS011;64227;48.724;9.104;2023-08-24T14:03:31;7.85;;;3.50;;
75634;SDS011;64227;48.724;9.104;2023-08-24T14:05:57;7.75;;;3.33;;
75634;SDS011;64227;48.724;9.104;2023-08-24T14:08:22;8.25;;;3.42;;
75634;SDS011;64227;48.724;9.104;2023-08-24T14:10:48;6.85;;;3.08;;
75634;SDS011;64227;48.724;9.104;2023-08-24T14:13:14;9.90;;;3.72;;
75634;SDS011;64227;48.724;9.104;2023-08-24T14:15:39;8.00;;;3.50;;
75634;SDS011;64227;48.724;9.104;2023-08-24T14:18:05;5.45;;;3.40;;
75634;SDS011;64227;48.724;9.104;2023-08-24T14:20:30;8.07;;;3.72;;
75634;SDS011;64227;48.724;9.104;2023-08-24T14:22:56;6.45;;;3.33;;
75634;SDS011;64227;48.724;9.104;2023-08-24T14:25:21;11.57;;;3.58;;
75634;SDS011;64227;48.724;9.104;2023-08-24T14:27:46;7.63;;;3.42;;
75634;SDS011;64227;48.724;9.104;2023-08-24T14:30:12;7.63;;;3.60;;
75634;SDS011;64227;48.724;9.104;2023-08-24T14:32:38;7.28;;;3.20;;
75634;SDS011;64227;48.724;9.104;2023-08-24T14:35:03;7.47;;;3.30;;
75634;SDS011;64227;48.724;9.104;2023-08-24T14:37:29;6.47;;;3.00;;
75634;SDS011;64227;48.724;9.104;2023-08-24T14:39:55;8.38;;;3.22;;
75634;SDS011;64227;48.724;9.104;2023-08-24T14:42:20;10.60;;;3.78;;
75634;SDS011;64227;48.724;9.104;2023-08-24T14:44:45;7.25;;;3.63;;
75634;SDS011;64227;48.724;9.104;2023-08-24T14:47:11;6.93;;;3.30;;
75634;SDS011;64227;48.724;9.104;2023-08-24T14:49:36;8.20;;;3.70;;
75634;SDS011;64227;48.724;9.104;2023-08-24T14:52:01;7.13;;;3.67;;
75634;SDS011;64227;48.724;9.104;2023-08-24T14:54:27;4.43;;;3.50;;
75634;SDS011;64227;48.724;9.104;2023-08-24T14:56:52;8.40;;;3.50;;
75634;SDS011;64227;48.724;9.104;2023-08-24T14:59:17;9.38;;;4.05;;